sensor_id;sensor_type;location;lat;lon;timestamp;temperature;humidity
15259;DHT22;34462;51.368;12.364;2022-10-03T00:00:00;9.50;99.90
15259;DHT22;34462;51.368;12.364;2022-10-03T00:06:07;9.50;99.90
15259;DHT22;34462;51.368;12.364;2022-10-03T00:08:55;9.50;99.90
15259;DHT22;34462;51.368;12.364;2022-10-03T00:11:41;9.50;99.90
15259;DHT22;34462;51.368;12.364;2022-10-03T00:14:28;9.50;99.90
15259;DHT22;34462;51.368;12.364;2022-10-03T00:17:07;9.50;99.90
15259;DHT22;34462;51.368;12.364;2022-10-03T00:19:51;9.40;99.90
15259;DHT22;34462;51.368;12.364;2022-10-03T00:22:38;9.40;99.90
15259;DHT22;34462;51.368;12.364;2022-10-03T00:25:24;9.40;99.90
15259;DHT22;34462;51.368;12.364;2022-10-03T00:28:15;9.40;99.90
15259;DHT22;34462;51.368;12.364;2022-10-03T00:31:06;9.50;99.90
15259;DHT22;34462;51.368;12.364;2022-10-03T00:33:46;9.70;99.90
15259;DHT22;34462;51.368;12.364;2022-10-03T00:36:36;9.50;99.90
15259;DHT22;34462;51.368;12.364;2022-10-03T00:39:41;9.50;99.90
15259;DHT22;34462;51.368;12.364;2022-10-03T00:45:44;9.50;99.90
15259;DHT22;34462;51.368;12.364;2022-10-03T00:52:00;9.50;99.90
15259;DHT22;34462;51.368;12.364;2022-10-03T00:54:49;9.50;99.90
15259;DHT22;34462;51.368;12.364;2022-10-03T00:57:49;9.40;99.90
15259;DHT22;34462;51.368;12.364;2022-10-03T01:00:28;9.70;99.90
15259;DHT22;34462;51.368;12.364;2022-10-03T01:03:20;9.40;99.90
15259;DHT22;34462;51.368;12.364;2022-10-03T01:06:20;9.50;99.90
15259;DHT22;34462;51.368;12.364;2022-10-03T01:09:22;9.40;99.90
15259;DHT22;34462;51.368;12.364;2022-10-03T01:12:19;9.50;99.90
15259;DHT22;34462;51.368;12.364;2022-10-03T01:15:13;9.50;99.90
15259;DHT22;34462;51.368;12.364;2022-10-03T01:18:01;9.40;99.90
15259;DHT22;34462;51.368;12.364;2022-10-03T01:20:48;9.40;99.90
15259;DHT22;34462;51.368;12.364;2022-10-03T01:23:37;9.30;99.90
15259;DHT22;34462;51.368;12.364;2022-10-03T01:26:56;9.50;99.90
15259;DHT22;34462;51.368;12.364;2022-10-03T01:29:40;9.50;99.90
15259;DHT22;34462;51.368;12.364;2022-10-03T01:32:35;9.50;99.90
15259;DHT22;34462;51.368;12.364;2022-10-03T01:35:19;9.50;99.90
15259;DHT22;34462;51.368;12.364;2022-10-03T01:38:04;9.50;99.90
15259;DHT22;34462;51.368;12.364;2022-10-03T01:40:46;9.40;99.90
15259;DHT22;34462;51.368;12.364;2022-10-03T01:43:29;9.40;99.90
15259;DHT22;34462;51.368;12.364;2022-10-03T01:46:12;9.40;99.90
15259;DHT22;34462;51.368;12.364;2022-10-03T01:48:52;9.40;99.90
15259;DHT22;34462;51.368;12.364;2022-10-03T01:51:28;9.30;99.90
15259;DHT22;34462;51.368;12.364;2022-10-03T01:54:10;9.40;99.90
15259;DHT22;34462;51.368;12.364;2022-10-03T01:56:54;9.40;99.90
15259;DHT22;34462;51.368;12.364;2022-10-03T01:59:34;9.40;99.90
15259;DHT22;34462;51.368;12.364;2022-10-03T02:02:15;9.50;99.90
15259;DHT22;34462;51.368;12.364;2022-10-03T02:04:58;9.60;99.90
15259;DHT22;34462;51.368;12.364;2022-10-03T02:07:41;9.70;99.90
15259;DHT22;34462;51.368;12.364;2022-10-03T02:10:23;9.70;99.90
15259;DHT22;34462;51.368;12.364;2022-10-03T02:13:06;9.80;99.90
15259;DHT22;34462;51.368;12.364;2022-10-03T02:15:51;9.80;99.90
15259;DHT22;34462;51.368;12.364;2022-10-03T02:18:33;9.90;99.90
15259;DHT22;34462;51.368;12.364;2022-10-03T02:21:14;9.90;99.90
15259;DHT22;34462;51.368;12.364;2022-10-03T02:23:47;9.90;99.90
15259;DHT22;34462;51.368;12.364;2022-10-03T02:29:50;10.00;99.90
15259;DHT22;34462;51.368;12.364;2022-10-03T02:33:03;10.10;99.90
15259;DHT22;34462;51.368;12.364;2022-10-03T02:40:02;10.20;99.90
15259;DHT22;34462;51.368;12.364;2022-10-03T02:43:09;10.20;99.90
15259;DHT22;34462;51.368;12.364;2022-10-03T02:46:09;10.30;99.90
15259;DHT22;34462;51.368;12.364;2022-10-03T02:49:50;10.30;99.90
15259;DHT22;34462;51.368;12.364;2022-10-03T02:53:04;10.30;99.90
15259;DHT22;34462;51.368;12.364;2022-10-03T02:56:27;10.30;99.90
15259;DHT22;34462;51.368;12.364;2022-10-03T02:59:43;10.20;99.90
15259;DHT22;34462;51.368;12.364;2022-10-03T03:06:14;10.20;99.90
15259;DHT22;34462;51.368;12.364;2022-10-03T03:19:23;10.30;99.90
15259;DHT22;34462;51.368;12.364;2022-10-03T03:22:23;10.40;99.90
15259;DHT22;34462;51.368;12.364;2022-10-03T03:25:29;10.50;99.90
15259;DHT22;34462;51.368;12.364;2022-10-03T03:28:21;10.50;99.90
15259;DHT22;34462;51.368;12.364;2022-10-03T03:31:05;10.60;99.90
15259;DHT22;34462;51.368;12.364;2022-10-03T03:33:47;10.60;99.90
15259;DHT22;34462;51.368;12.364;2022-10-03T03:36:29;10.60;99.90
15259;DHT22;34462;51.368;12.364;2022-10-03T03:39:27;10.60;99.90
15259;DHT22;34462;51.368;12.364;2022-10-03T03:42:18;10.70;99.90
15259;DHT22;34462;51.368;12.364;2022-10-03T03:45:29;10.70;99.90
15259;DHT22;34462;51.368;12.364;2022-10-03T03:51:32;10.70;99.90
15259;DHT22;34462;51.368;12.364;2022-10-03T03:54:36;10.70;99.90
15259;DHT22;34462;51.368;12.364;2022-10-03T03:57:42;10.60;99.90
15259;DHT22;34462;51.368;12.364;2022-10-03T04:00:19;10.50;99.90
15259;DHT22;34462;51.368;12.364;2022-10-03T04:03:16;10.40;99.90
15259;DHT22;34462;51.368;12.364;2022-10-03T04:06:10;10.30;99.90
15259;DHT22;34462;51.368;12.364;2022-10-03T04:09:06;10.20;99.90
15259;DHT22;34462;51.368;12.364;2022-10-03T04:11:55;10.20;99.90
15259;DHT22;34462;51.368;12.364;2022-10-03T04:15:06;10.20;99.90
15259;DHT22;34462;51.368;12.364;2022-10-03T04:18:15;10.20;99.90
15259;DHT22;34462;51.368;12.364;2022-10-03T04:21:36;10.30;99.90
15259;DHT22;34462;51.368;12.364;2022-10-03T04:24:35;10.30;99.90
15259;DHT22;34462;51.368;12.364;2022-10-03T04:27:42;10.40;99.90
15259;DHT22;34462;51.368;12.364;2022-10-03T04:30:45;10.40;99.90
15259;DHT22;34462;51.368;12.364;2022-10-03T04:33:33;10.40;99.90
15259;DHT22;34462;51.368;12.364;2022-10-03T04:36:39;10.40;99.90
15259;DHT22;34462;51.368;12.364;2022-10-03T04:39:28;10.30;99.90
15259;DHT22;34462;51.368;12.364;2022-10-03T04:42:10;10.30;99.90
15259;DHT22;34462;51.368;12.364;2022-10-03T04:44:59;10.20;99.90
15259;DHT22;34462;51.368;12.364;2022-10-03T04:47:42;10.20;99.90
15259;DHT22;34462;51.368;12.364;2022-10-03T04:50:26;10.10;99.90
15259;DHT22;34462;51.368;12.364;2022-10-03T04:53:18;10.10;99.90
15259;DHT22;34462;51.368;12.364;2022-10-03T04:55:53;10.10;99.90
15259;DHT22;34462;51.368;12.364;2022-10-03T04:58:49;10.10;99.90
15259;DHT22;34462;51.368;12.364;2022-10-03T05:01:27;10.10;99.90
15259;DHT22;34462;51.368;12.364;2022-10-03T05:04:07;10.10;99.90
15259;DHT22;34462;51.368;12.364;2022-10-03T05:06:58;10.10;99.90
15259;DHT22;34462;51.368;12.364;2022-10-03T05:09:38;10.10;99.90
15259;DHT22;34462;51.368;12.364;2022-10-03T05:12:20;10.10;99.90
15259;DHT22;34462;51.368;12.364;2022-10-03T05:15:05;10.20;99.90
15259;DHT22;34462;51.368;12.364;2022-10-03T05:17:50;10.30;99.90
15259;DHT22;34462;51.368;12.364;2022-10-03T05:20:39;10.30;99.90
15259;DHT22;34462;51.368;12.364;2022-10-03T05:23:25;10.30;99.90
15259;DHT22;34462;51.368;12.364;2022-10-03T05:26:06;10.30;99.90
15259;DHT22;34462;51.368;12.364;2022-10-03T05:29:03;10.40;99.90
15259;DHT22;34462;51.368;12.364;2022-10-03T05:31:49;10.40;99.90
15259;DHT22;34462;51.368;12.364;2022-10-03T05:34:37;10.50;99.90
15259;DHT22;34462;51.368;12.364;2022-10-03T05:37:39;10.50;99.90
15259;DHT22;34462;51.368;12.364;2022-10-03T05:40:24;10.50;99.90
15259;DHT22;34462;51.368;12.364;2022-10-03T05:43:01;10.60;99.90
15259;DHT22;34462;51.368;12.364;2022-10-03T05:45:46;10.60;99.90
15259;DHT22;34462;51.368;12.364;2022-10-03T05:48:30;10.70;99.90
15259;DHT22;34462;51.368;12.364;2022-10-03T05:51:30;10.80;99.90
15259;DHT22;34462;51.368;12.364;2022-10-03T05:54:44;10.90;99.90
15259;DHT22;34462;51.368;12.364;2022-10-03T05:57:50;10.90;99.90
15259;DHT22;34462;51.368;12.364;2022-10-03T06:00:47;10.90;99.90
15259;DHT22;34462;51.368;12.364;2022-10-03T06:03:44;10.90;99.90
15259;DHT22;34462;51.368;12.364;2022-10-03T06:06:32;11.00;99.90
15259;DHT22;34462;51.368;12.364;2022-10-03T06:09:34;11.00;99.90
15259;DHT22;34462;51.368;12.364;2022-10-03T06:12:34;11.10;99.90
15259;DHT22;34462;51.368;12.364;2022-10-03T06:15:28;11.30;99.90
15259;DHT22;34462;51.368;12.364;2022-10-03T06:18:22;11.30;99.90
15259;DHT22;34462;51.368;12.364;2022-10-03T06:21:43;11.40;99.90
15259;DHT22;34462;51.368;12.364;2022-10-03T06:25:00;11.40;99.90
15259;DHT22;34462;51.368;12.364;2022-10-03T06:28:15;11.50;99.90
15259;DHT22;34462;51.368;12.364;2022-10-03T06:35:08;11.60;99.90
15259;DHT22;34462;51.368;12.364;2022-10-03T06:38:15;11.70;99.90
15259;DHT22;34462;51.368;12.364;2022-10-03T06:41:23;11.90;99.90
15259;DHT22;34462;51.368;12.364;2022-10-03T06:47:44;11.90;99.90
15259;DHT22;34462;51.368;12.364;2022-10-03T06:50:46;12.10;99.90
15259;DHT22;34462;51.368;12.364;2022-10-03T06:53:44;12.10;99.90
15259;DHT22;34462;51.368;12.364;2022-10-03T06:56:44;12.20;99.90
15259;DHT22;34462;51.368;12.364;2022-10-03T07:03:10;12.50;99.90
15259;DHT22;34462;51.368;12.364;2022-10-03T07:10:00;12.50;99.90
15259;DHT22;34462;51.368;12.364;2022-10-03T07:13:01;12.60;99.90
15259;DHT22;34462;51.368;12.364;2022-10-03T07:16:10;12.60;99.90
15259;DHT22;34462;51.368;12.364;2022-10-03T07:19:28;12.70;99.90
15259;DHT22;34462;51.368;12.364;2022-10-03T07:22:42;12.70;99.90
15259;DHT22;34462;51.368;12.364;2022-10-03T07:35:26;13.30;99.90
15259;DHT22;34462;51.368;12.364;2022-10-03T07:39:06;13.50;99.90
15259;DHT22;34462;51.368;12.364;2022-10-03T07:42:13;13.70;99.90
15259;DHT22;34462;51.368;12.364;2022-10-03T07:45:18;13.80;99.90
15259;DHT22;34462;51.368;12.364;2022-10-03T07:48:08;13.80;99.90
15259;DHT22;34462;51.368;12.364;2022-10-03T07:51:22;13.70;99.90
15259;DHT22;34462;51.368;12.364;2022-10-03T08:00:53;13.40;99.90
15259;DHT22;34462;51.368;12.364;2022-10-03T08:07:07;13.30;99.90
15259;DHT22;34462;51.368;12.364;2022-10-03T08:10:08;13.30;99.90
15259;DHT22;34462;51.368;12.364;2022-10-03T08:16:10;13.30;99.90
15259;DHT22;34462;51.368;12.364;2022-10-03T08:19:06;13.30;99.90
15259;DHT22;34462;51.368;12.364;2022-10-03T08:21:56;13.50;99.90
15259;DHT22;34462;51.368;12.364;2022-10-03T08:28:17;13.90;99.90
15259;DHT22;34462;51.368;12.364;2022-10-03T08:31:22;14.00;99.90
15259;DHT22;34462;51.368;12.364;2022-10-03T08:34:35;14.20;99.90
15259;DHT22;34462;51.368;12.364;2022-10-03T08:44:12;14.90;99.90
15259;DHT22;34462;51.368;12.364;2022-10-03T08:47:20;14.70;99.90
15259;DHT22;34462;51.368;12.364;2022-10-03T08:50:40;14.50;99.90
15259;DHT22;34462;51.368;12.364;2022-10-03T08:53:49;14.50;99.90
15259;DHT22;34462;51.368;12.364;2022-10-03T08:56:45;14.40;99.90
15259;DHT22;34462;51.368;12.364;2022-10-03T09:00:13;14.40;99.90
15259;DHT22;34462;51.368;12.364;2022-10-03T09:03:28;14.20;99.90
15259;DHT22;34462;51.368;12.364;2022-10-03T09:06:56;14.20;99.90
15259;DHT22;34462;51.368;12.364;2022-10-03T09:10:17;14.30;99.90
15259;DHT22;34462;51.368;12.364;2022-10-03T09:16:58;14.70;99.90
15259;DHT22;34462;51.368;12.364;2022-10-03T09:30:41;15.30;99.90
15259;DHT22;34462;51.368;12.364;2022-10-03T09:34:02;15.20;99.90
15259;DHT22;34462;51.368;12.364;2022-10-03T09:37:31;15.20;99.90
15259;DHT22;34462;51.368;12.364;2022-10-03T09:40:58;15.10;99.90
15259;DHT22;34462;51.368;12.364;2022-10-03T09:44:08;15.00;99.90
15259;DHT22;34462;51.368;12.364;2022-10-03T09:47:21;15.10;99.90
15259;DHT22;34462;51.368;12.364;2022-10-03T09:50:48;15.00;99.90
15259;DHT22;34462;51.368;12.364;2022-10-03T09:53:54;14.90;99.90
15259;DHT22;34462;51.368;12.364;2022-10-03T10:00:20;15.10;99.90
15259;DHT22;34462;51.368;12.364;2022-10-03T10:06:30;15.00;99.90
15259;DHT22;34462;51.368;12.364;2022-10-03T10:09:31;15.10;99.90
15259;DHT22;34462;51.368;12.364;2022-10-03T10:12:54;15.20;99.90
15259;DHT22;34462;51.368;12.364;2022-10-03T10:16:11;15.40;99.90
15259;DHT22;34462;51.368;12.364;2022-10-03T10:19:14;15.70;99.90
15259;DHT22;34462;51.368;12.364;2022-10-03T10:25:40;15.90;99.90
15259;DHT22;34462;51.368;12.364;2022-10-03T10:28:47;15.90;99.90
15259;DHT22;34462;51.368;12.364;2022-10-03T10:35:15;16.10;99.90
15259;DHT22;34462;51.368;12.364;2022-10-03T10:38:21;16.00;99.90
15259;DHT22;34462;51.368;12.364;2022-10-03T10:41:50;16.10;99.90
15259;DHT22;34462;51.368;12.364;2022-10-03T10:45:32;16.10;99.90
15259;DHT22;34462;51.368;12.364;2022-10-03T10:48:44;16.20;99.90
15259;DHT22;34462;51.368;12.364;2022-10-03T10:52:18;16.20;99.90
15259;DHT22;34462;51.368;12.364;2022-10-03T11:06:27;16.80;99.90
15259;DHT22;34462;51.368;12.364;2022-10-03T11:09:41;17.00;99.90
15259;DHT22;34462;51.368;12.364;2022-10-03T11:12:52;17.00;99.90
15259;DHT22;34462;51.368;12.364;2022-10-03T11:16:24;17.00;99.90
15259;DHT22;34462;51.368;12.364;2022-10-03T11:19:49;16.80;99.90
15259;DHT22;34462;51.368;12.364;2022-10-03T11:33:53;16.20;99.90
15259;DHT22;34462;51.368;12.364;2022-10-03T11:37:03;16.40;99.90
15259;DHT22;34462;51.368;12.364;2022-10-03T11:39:43;16.60;99.90
15259;DHT22;34462;51.368;12.364;2022-10-03T11:42:34;16.70;99.90
15259;DHT22;34462;51.368;12.364;2022-10-03T11:45:23;16.90;99.90
15259;DHT22;34462;51.368;12.364;2022-10-03T11:48:24;16.80;99.90
15259;DHT22;34462;51.368;12.364;2022-10-03T11:51:07;16.70;99.90
15259;DHT22;34462;51.368;12.364;2022-10-03T11:53:42;16.60;99.90
15259;DHT22;34462;51.368;12.364;2022-10-03T11:56:33;16.50;99.90
15259;DHT22;34462;51.368;12.364;2022-10-03T11:59:24;16.40;99.90
15259;DHT22;34462;51.368;12.364;2022-10-03T12:02:11;16.30;99.90
15259;DHT22;34462;51.368;12.364;2022-10-03T12:04:52;16.30;99.90
15259;DHT22;34462;51.368;12.364;2022-10-03T12:07:43;16.30;99.90
15259;DHT22;34462;51.368;12.364;2022-10-03T12:10:40;16.40;99.90
15259;DHT22;34462;51.368;12.364;2022-10-03T12:13:16;16.70;99.90
15259;DHT22;34462;51.368;12.364;2022-10-03T12:15:51;16.90;99.90
15259;DHT22;34462;51.368;12.364;2022-10-03T12:18:27;17.00;99.90
15259;DHT22;34462;51.368;12.364;2022-10-03T12:21:21;17.00;99.90
15259;DHT22;34462;51.368;12.364;2022-10-03T12:24:19;17.10;99.90
15259;DHT22;34462;51.368;12.364;2022-10-03T12:26:57;17.20;99.90
15259;DHT22;34462;51.368;12.364;2022-10-03T12:29:35;17.20;99.90
15259;DHT22;34462;51.368;12.364;2022-10-03T12:32:25;17.20;99.90
15259;DHT22;34462;51.368;12.364;2022-10-03T12:35:09;17.40;99.90
15259;DHT22;34462;51.368;12.364;2022-10-03T12:38:11;17.40;99.90
15259;DHT22;34462;51.368;12.364;2022-10-03T12:40:58;17.20;99.90
15259;DHT22;34462;51.368;12.364;2022-10-03T12:43:45;17.00;99.90
15259;DHT22;34462;51.368;12.364;2022-10-03T12:46:31;16.80;99.90
15259;DHT22;34462;51.368;12.364;2022-10-03T12:49:12;16.80;99.90
15259;DHT22;34462;51.368;12.364;2022-10-03T12:51:51;16.70;99.90
15259;DHT22;34462;51.368;12.364;2022-10-03T12:54:37;16.70;99.90
15259;DHT22;34462;51.368;12.364;2022-10-03T13:00:33;16.90;99.90
15259;DHT22;34462;51.368;12.364;2022-10-03T13:03:34;16.90;99.90
15259;DHT22;34462;51.368;12.364;2022-10-03T13:06:50;17.00;99.90
15259;DHT22;34462;51.368;12.364;2022-10-03T13:09:48;16.90;99.90
15259;DHT22;34462;51.368;12.364;2022-10-03T13:12:43;17.00;99.90
15259;DHT22;34462;51.368;12.364;2022-10-03T13:15:56;16.90;99.90
15259;DHT22;34462;51.368;12.364;2022-10-03T13:18:55;17.00;99.90
15259;DHT22;34462;51.368;12.364;2022-10-03T13:21:48;17.00;99.90
15259;DHT22;34462;51.368;12.364;2022-10-03T13:24:34;17.00;99.90
15259;DHT22;34462;51.368;12.364;2022-10-03T13:27:21;17.00;99.90
15259;DHT22;34462;51.368;12.364;2022-10-03T13:30:04;17.20;99.90
15259;DHT22;34462;51.368;12.364;2022-10-03T13:32:42;17.10;99.90
15259;DHT22;34462;51.368;12.364;2022-10-03T13:35:20;17.20;99.90
15259;DHT22;34462;51.368;12.364;2022-10-03T13:38:46;17.10;99.90
15259;DHT22;34462;51.368;12.364;2022-10-03T13:41:38;16.90;99.90
15259;DHT22;34462;51.368;12.364;2022-10-03T13:44:20;16.70;99.90
15259;DHT22;34462;51.368;12.364;2022-10-03T13:46:58;16.50;99.90
15259;DHT22;34462;51.368;12.364;2022-10-03T13:49:44;16.30;99.90
15259;DHT22;34462;51.368;12.364;2022-10-03T13:52:31;16.20;99.90
15259;DHT22;34462;51.368;12.364;2022-10-03T13:55:15;16.20;99.90
15259;DHT22;34462;51.368;12.364;2022-10-03T13:58:16;16.10;99.90
15259;DHT22;34462;51.368;12.364;2022-10-03T14:01:34;16.00;99.90
15259;DHT22;34462;51.368;12.364;2022-10-03T14:04:42;15.80;99.90
15259;DHT22;34462;51.368;12.364;2022-10-03T14:07:30;15.50;99.90
15259;DHT22;34462;51.368;12.364;2022-10-03T14:10:17;15.50;99.90
15259;DHT22;34462;51.368;12.364;2022-10-03T14:13:09;15.20;99.90
15259;DHT22;34462;51.368;12.364;2022-10-03T14:15:53;15.10;99.90
15259;DHT22;34462;51.368;12.364;2022-10-03T14:18:41;15.10;99.90
15259;DHT22;34462;51.368;12.364;2022-10-03T14:21:50;14.90;99.90
15259;DHT22;34462;51.368;12.364;2022-10-03T14:24:36;15.10;99.90
15259;DHT22;34462;51.368;12.364;2022-10-03T14:27:36;15.20;99.90
15259;DHT22;34462;51.368;12.364;2022-10-03T14:30:13;15.30;99.90
15259;DHT22;34462;51.368;12.364;2022-10-03T14:32:53;15.40;99.90
15259;DHT22;34462;51.368;12.364;2022-10-03T14:35:36;15.50;99.90
15259;DHT22;34462;51.368;12.364;2022-10-03T14:38:22;15.60;99.90
15259;DHT22;34462;51.368;12.364;2022-10-03T14:41:18;15.70;99.90
15259;DHT22;34462;51.368;12.364;2022-10-03T14:43:53;15.60;99.90
15259;DHT22;34462;51.368;12.364;2022-10-03T14:46:25;15.70;99.90
15259;DHT22;34462;51.368;12.364;2022-10-03T14:48:59;15.70;99.90
15259;DHT22;34462;51.368;12.364;2022-10-03T14:51:33;15.70;99.90
15259;DHT22;34462;51.368;12.364;2022-10-03T14:54:15;15.80;99.90
15259;DHT22;34462;51.368;12.364;2022-10-03T14:56:48;16.00;99.90
15259;DHT22;34462;51.368;12.364;2022-10-03T14:59:20;16.00;99.90
15259;DHT22;34462;51.368;12.364;2022-10-03T15:01:54;16.20;99.90
15259;DHT22;34462;51.368;12.364;2022-10-03T15:04:29;16.20;99.90
15259;DHT22;34462;51.368;12.364;2022-10-03T15:07:01;16.20;99.90
15259;DHT22;34462;51.368;12.364;2022-10-03T15:09:41;16.10;99.90
15259;DHT22;34462;51.368;12.364;2022-10-03T15:12:17;16.00;99.90
15259;DHT22;34462;51.368;12.364;2022-10-03T15:14:56;16.00;99.90
15259;DHT22;34462;51.368;12.364;2022-10-03T15:17:32;15.90;99.90
15259;DHT22;34462;51.368;12.364;2022-10-03T15:20:04;15.70;99.90
15259;DHT22;34462;51.368;12.364;2022-10-03T15:22:37;15.60;99.90
15259;DHT22;34462;51.368;12.364;2022-10-03T15:25:11;15.60;99.90
15259;DHT22;34462;51.368;12.364;2022-10-03T15:27:49;15.60;99.90
15259;DHT22;34462;51.368;12.364;2022-10-03T15:30:21;15.50;99.90
15259;DHT22;34462;51.368;12.364;2022-10-03T15:33:04;15.60;99.90
15259;DHT22;34462;51.368;12.364;2022-10-03T15:35:43;15.50;99.90
15259;DHT22;34462;51.368;12.364;2022-10-03T15:38:15;15.50;99.90
15259;DHT22;34462;51.368;12.364;2022-10-03T15:40:53;15.50;99.90
15259;DHT22;34462;51.368;12.364;2022-10-03T15:43:42;15.50;99.90
15259;DHT22;34462;51.368;12.364;2022-10-03T15:46:26;15.40;99.90
15259;DHT22;34462;51.368;12.364;2022-10-03T15:49:01;15.30;99.90
15259;DHT22;34462;51.368;12.364;2022-10-03T15:51:34;15.40;99.90
15259;DHT22;34462;51.368;12.364;2022-10-03T15:54:06;15.30;99.90
15259;DHT22;34462;51.368;12.364;2022-10-03T15:56:41;15.30;99.90
15259;DHT22;34462;51.368;12.364;2022-10-03T15:59:19;15.30;99.90
15259;DHT22;34462;51.368;12.364;2022-10-03T16:01:51;15.30;99.90
15259;DHT22;34462;51.368;12.364;2022-10-03T16:04:24;15.20;99.90
15259;DHT22;34462;51.368;12.364;2022-10-03T16:07:00;15.20;99.90
15259;DHT22;34462;51.368;12.364;2022-10-03T16:09:42;15.20;99.90
15259;DHT22;34462;51.368;12.364;2022-10-03T16:12:40;15.20;99.90
15259;DHT22;34462;51.368;12.364;2022-10-03T16:15:23;15.00;99.90
15259;DHT22;34462;51.368;12.364;2022-10-03T16:18:01;15.00;99.90
15259;DHT22;34462;51.368;12.364;2022-10-03T16:20:36;14.90;99.90
15259;DHT22;34462;51.368;12.364;2022-10-03T16:23:14;14.90;99.90
15259;DHT22;34462;51.368;12.364;2022-10-03T16:25:48;14.80;99.90
15259;DHT22;34462;51.368;12.364;2022-10-03T16:28:22;14.80;99.90
15259;DHT22;34462;51.368;12.364;2022-10-03T16:31:02;14.70;99.90
15259;DHT22;34462;51.368;12.364;2022-10-03T16:33:34;14.70;99.90
15259;DHT22;34462;51.368;12.364;2022-10-03T16:36:07;14.70;99.90
15259;DHT22;34462;51.368;12.364;2022-10-03T16:38:44;14.60;99.90
15259;DHT22;34462;51.368;12.364;2022-10-03T16:41:21;14.60;99.90
15259;DHT22;34462;51.368;12.364;2022-10-03T16:43:54;14.50;99.90
15259;DHT22;34462;51.368;12.364;2022-10-03T16:46:33;14.50;99.90
15259;DHT22;34462;51.368;12.364;2022-10-03T16:49:10;14.50;99.90
15259;DHT22;34462;51.368;12.364;2022-10-03T16:52:13;14.50;99.90
15259;DHT22;34462;51.368;12.364;2022-10-03T16:54:42;14.60;99.90
15259;DHT22;34462;51.368;12.364;2022-10-03T16:57:15;14.40;99.90
15259;DHT22;34462;51.368;12.364;2022-10-03T16:59:48;14.20;99.90
15259;DHT22;34462;51.368;12.364;2022-10-03T17:02:21;14.10;99.90
15259;DHT22;34462;51.368;12.364;2022-10-03T17:04:59;14.00;99.90
15259;DHT22;34462;51.368;12.364;2022-10-03T17:07:37;13.80;99.90
15259;DHT22;34462;51.368;12.364;2022-10-03T17:10:26;13.80;99.90
15259;DHT22;34462;51.368;12.364;2022-10-03T17:13:01;13.70;99.90
15259;DHT22;34462;51.368;12.364;2022-10-03T17:15:44;13.60;99.90
15259;DHT22;34462;51.368;12.364;2022-10-03T17:18:24;13.60;99.90
15259;DHT22;34462;51.368;12.364;2022-10-03T17:20:59;13.60;99.90
15259;DHT22;34462;51.368;12.364;2022-10-03T17:23:36;13.60;99.90
15259;DHT22;34462;51.368;12.364;2022-10-03T17:26:10;13.60;99.90
15259;DHT22;34462;51.368;12.364;2022-10-03T17:28:48;13.60;99.90
15259;DHT22;34462;51.368;12.364;2022-10-03T17:31:30;13.60;99.90
15259;DHT22;34462;51.368;12.364;2022-10-03T17:34:09;13.60;99.90
15259;DHT22;34462;51.368;12.364;2022-10-03T17:37:00;13.60;99.90
15259;DHT22;34462;51.368;12.364;2022-10-03T17:39:49;13.60;99.90
15259;DHT22;34462;51.368;12.364;2022-10-03T17:42:30;13.60;99.90
15259;DHT22;34462;51.368;12.364;2022-10-03T17:45:15;13.60;99.90
15259;DHT22;34462;51.368;12.364;2022-10-03T17:47:58;13.60;99.90
15259;DHT22;34462;51.368;12.364;2022-10-03T17:50:35;13.50;99.90
15259;DHT22;34462;51.368;12.364;2022-10-03T17:53:19;13.60;99.90
15259;DHT22;34462;51.368;12.364;2022-10-03T17:55:53;13.60;99.90
15259;DHT22;34462;51.368;12.364;2022-10-03T17:58:24;13.60;99.90
15259;DHT22;34462;51.368;12.364;2022-10-03T18:01:03;13.70;99.90
15259;DHT22;34462;51.368;12.364;2022-10-03T18:03:41;13.50;99.90
15259;DHT22;34462;51.368;12.364;2022-10-03T18:06:37;13.40;99.90
15259;DHT22;34462;51.368;12.364;2022-10-03T18:09:25;13.40;99.90
15259;DHT22;34462;51.368;12.364;2022-10-03T18:12:04;13.40;99.90
15259;DHT22;34462;51.368;12.364;2022-10-03T18:15:03;13.40;99.90
15259;DHT22;34462;51.368;12.364;2022-10-03T18:17:57;13.40;99.90
15259;DHT22;34462;51.368;12.364;2022-10-03T18:20:44;13.40;99.90
15259;DHT22;34462;51.368;12.364;2022-10-03T18:23:20;13.30;99.90
15259;DHT22;34462;51.368;12.364;2022-10-03T18:26:24;13.30;99.90
15259;DHT22;34462;51.368;12.364;2022-10-03T18:29:04;13.30;99.90
15259;DHT22;34462;51.368;12.364;2022-10-03T18:31:44;13.30;99.90
15259;DHT22;34462;51.368;12.364;2022-10-03T18:34:18;13.30;99.90
15259;DHT22;34462;51.368;12.364;2022-10-03T18:36:52;13.30;99.90
15259;DHT22;34462;51.368;12.364;2022-10-03T18:39:26;13.40;99.90
15259;DHT22;34462;51.368;12.364;2022-10-03T18:41:58;13.40;99.90
15259;DHT22;34462;51.368;12.364;2022-10-03T18:44:29;13.30;99.90
15259;DHT22;34462;51.368;12.364;2022-10-03T18:47:11;13.30;99.90
15259;DHT22;34462;51.368;12.364;2022-10-03T18:49:50;13.40;99.90
15259;DHT22;34462;51.368;12.364;2022-10-03T18:52:36;13.40;99.90
15259;DHT22;34462;51.368;12.364;2022-10-03T18:55:16;13.40;99.90
15259;DHT22;34462;51.368;12.364;2022-10-03T18:57:54;13.40;99.90
15259;DHT22;34462;51.368;12.364;2022-10-03T19:00:37;13.30;99.90
15259;DHT22;34462;51.368;12.364;2022-10-03T19:03:15;13.40;99.90
15259;DHT22;34462;51.368;12.364;2022-10-03T19:05:50;13.40;99.90
15259;DHT22;34462;51.368;12.364;2022-10-03T19:08:24;13.40;99.90
15259;DHT22;34462;51.368;12.364;2022-10-03T19:11:01;13.30;99.90
15259;DHT22;34462;51.368;12.364;2022-10-03T19:13:42;13.40;99.90
15259;DHT22;34462;51.368;12.364;2022-10-03T19:16:39;13.30;99.90
15259;DHT22;34462;51.368;12.364;2022-10-03T19:19:23;13.30;99.90
15259;DHT22;34462;51.368;12.364;2022-10-03T19:22:01;13.30;99.90
15259;DHT22;34462;51.368;12.364;2022-10-03T19:24:32;13.20;99.90
15259;DHT22;34462;51.368;12.364;2022-10-03T19:27:37;13.40;99.90
15259;DHT22;34462;51.368;12.364;2022-10-03T19:30:08;13.30;99.90
15259;DHT22;34462;51.368;12.364;2022-10-03T19:32:48;13.30;99.90
15259;DHT22;34462;51.368;12.364;2022-10-03T19:35:24;13.20;99.90
15259;DHT22;34462;51.368;12.364;2022-10-03T19:37:55;13.20;99.90
15259;DHT22;34462;51.368;12.364;2022-10-03T19:40:41;13.20;99.90
15259;DHT22;34462;51.368;12.364;2022-10-03T19:43:42;13.20;99.90
15259;DHT22;34462;51.368;12.364;2022-10-03T19:46:17;13.20;99.90
15259;DHT22;34462;51.368;12.364;2022-10-03T19:49:08;13.20;99.90
15259;DHT22;34462;51.368;12.364;2022-10-03T19:51:48;13.20;99.90
15259;DHT22;34462;51.368;12.364;2022-10-03T19:54:29;13.20;99.90
15259;DHT22;34462;51.368;12.364;2022-10-03T19:57:02;13.20;99.90